NCAR-RAP Real-Time Weather Data

Output produced by METARs form (06 May 2021  15:15 UTC)
found at http://weather.rap.ucar.edu/surface/
 
KPKB 061453Z V004KT 10SM BKN027
KPKB 061253Z 00000KT 10SM CLR 08/04 A3018 RMK AO2 SLP220 T00780039
KPKB 061153Z 00000KT 7SM CLR 04/02 A3017 RMK AO2 SLP218 70003 T00390022 10039 20011 53010
KPKB 061140Z 00000KT 7SM CLR 03/02 A3016 RMK AO2 T00280017
KPKB 061053Z 00000KT 3/4SM BR VV001 02/01 A3013 RMK AO2 SLP206 T00170006
KPKB 061035Z AUTO 11003KT 3/4SM BR VV001 02/01 A3013 RMK AO2 T00170006
KPKB 061031Z AUTO 00000KT 2SM BR BKN001 02/01 A3013 RMK AO2 T00170006
KPKB 061025Z AUTO 00000KT 9SM SCT001 02/00 A3013 RMK AO2 T00170000
KPKB 060953Z AUTO 00000KT 10SM CLR 01/00 A3013 RMK AO2 SLP205 T00110000
KPKB 060853Z AUTO 00000KT 10SM CLR 02/01 A3014 RMK AO2 SLP207 T00220011 53005
KPKB 060753Z AUTO 14003KT 10SM CLR 02/01 A3013 RMK AO2 SLP203 T00220011
KPKB 060653Z AUTO 00000KT 10SM CLR 03/02 A3012 RMK AO2 SLP201 T00280017
KPKB 060553Z AUTO 00000KT 10SM CLR 04/02 A3012 RMK AO2 SLP202 T00390022 10122 20039 58005
KPKB 060453Z AUTO 00000KT 10SM CLR 05/03 A3013 RMK AO2 SLP203 T00500028 401670044
KPKB 060353Z AUTO 00000KT 10SM CLR 06/02 A3013 RMK AO2 SLP204 T00610022
KPKB 060253Z 33004KT 10SM FEW055 08/02 A3014 RMK AO2 SLP204 T00830017 51030
KPKB 060153Z 32008KT 10SM FEW042 09/02 A3012 RMK AO2 SLP199 T00940022
KPKB 060053Z 33008KT 10SM SCT043 BKN055 11/05 A3007 RMK AO2 SLP183 T01110050
KPKB 052353Z 32005KT 10SM FEW041 BKN060 12/06 A3004 RMK AO2 SLP173 T01220056 10167 20122 51014